AirNav   ATP
 
 446 users online  

K71 Lincoln Municipal Airport
Lincoln, Kansas, USA

GOING TO LINCOLN?


FAA INFORMATION EFFECTIVE 19 JULY 2018

Location

FAA Identifier: K71
Lat/Long: 39-03-29.0230N / 098-10-01.1900W
39-03.483717N / 098-10.019833W
39.0580619 / -98.1669972
(estimated)
Elevation: 1412 ft. / 430 m (estimated)
Variation: 07E (1985)
From city: 2 miles NW of LINCOLN, KS
Time zone: UTC -5 (UTC -6 during Standard Time)
Zip code: 67455

Airport Operations

Airport use: Open to the public
Activation date: 09/1948
Control tower: no
ARTCC: KANSAS CITY CENTER
FSS: WICHITA FLIGHT SERVICE STATION
NOTAMs facility: ICT (NOTAM-D service available)
Attendance: MAR-NOV MON-FRI 0800-1700
Wind indicator: yes
Segmented circle: no
Lights: SS-SR

Airport Communications

CTAF: 122.9
WX AWOS-3 at 9K7 (19 nm S): 119.675 (785-472-5609)

Nearby radio navigation aids

VOR radial/distance  VOR name  Freq  Var
SLNr280/26.7SALINA VORTAC117.1007E

Airport Services

Fuel available: 100LL
FOR FUEL AFTER HRS. CALL (785) 524-5240.
Parking: hangars and tiedowns
Airframe service: MINOR
Powerplant service: MINOR
Bottled oxygen: NONE
Bulk oxygen: NONE

Runway Information

Runway 2/20

Dimensions: 2700 x 130 ft. / 823 x 40 m
Surface: turf, in good condition
RODENT ACTVTY ON RY CLOSELY MONITORED BY MGMT.
Runway edge lights: low intensity
RUNWAY 2  RUNWAY 20
Traffic pattern: leftleft
Obstructions: 21 ft. road, 75 ft. from runway, 3:1 slope to clear
30 FT TREE 335 FT FM RY END 69 FT L WITH OTHER TREES IN VICINITY.
18 ft. road, 45 ft. from runway, 2:1 slope to clear

Runway 15/33

Dimensions: 2700 x 370 ft. / 823 x 113 m
Surface: turf, in good condition
RODENT ACTVTY ON RY CLOSELY MONITORED BY MGMT.
Runway edge lights: low intensity
RUNWAY 15  RUNWAY 33
Gradient: 0.6%0.6%
Traffic pattern: leftleft
Obstructions: 18 ft. road, 39 ft. from runway, 2:1 slope to clear22 ft. road, 75 ft. from runway, 3:1 slope to clear

Airport Ownership and Management from official FAA records

Ownership: Publicly-owned
Owner: CITY OF LINCOLN
143 E LINCOLN
LINCOLN, KS 67455
Phone 785-524-4280
Manager: CLAY HARING
POST ROCK AVIATION, BOX 444
LINCOLN, KS 67455
Phone 785-524-5240
POST ROCK AVIATION; CLAY HARING.

Airport Operational Statistics

Aircraft based on the field: 6
Single engine airplanes: 6
    
Aircraft operations: avg 39/day *
70% local general aviation
28% transient general aviation
2% military
* for 12-month period ending 18 September 2015

Additional Remarks

ARPT MAY NOT BE ATNDD DURG PERIODS WHEN AGRICULTURAL ACTIVITIES ARE NOT CONDUCTED.
SLIGHT RODENT ACTVTY ON RYS 02/20 & 15/33.

Instrument Procedures

There are no published instrument procedures at K71.

Some nearby airports with instrument procedures:

K61 - Moritz Memorial Airport (25 nm N)
KSLN - Salina Regional Airport (29 nm SE)
KRSL - Russell Municipal Airport (32 nm W)
KCNK - Blosser Municipal Airport (38 nm NE)
KLYO - Lyons-Rice County Municipal Airport (43 nm S)
 
Loc | Ops | Rwys | IFR | FBO | Links
Com | Nav | Svcs | Stats | Notes

Kansas City Aviation Department
 
Area around K71 (Lincoln Municipal Airport)
 
Road maps at: MapQuest Bing Google
 
Aerial photo
WARNING: Photo may not be current or correct
Aerial photo of K71 (Lincoln Municipal Airport)
Photo by Von Rothenberger
Photo taken 13-Aug-2010
looking north.

Do you have a better or more recent aerial photo of Lincoln Municipal Airport that you would like to share? If so, please send us your photo.

 
Sectional chart

 
Airport distance calculator
Flying to Lincoln Municipal Airport? Find the distance to fly.

From to K71

Sunrise and sunset
Times for 16-Aug-2018
 Local
(UTC-5)
 Zulu
(UTC)
Morning civil twilight06:1911:19
Sunrise06:4811:48
Sunset20:2601:26
Evening civil twilight20:5401:54

Current date and time
Zulu (UTC)  16-Aug-2018 07:59:14
Local (UTC-5)  16-Aug-2018 02:59:14
 
METAR
KSLN 
29nm SE 
160753Z AUTO 00000KT 10SM CLR 21/20 A2997 RMK AO2 SLP136 T02060200
KRSL 
32nm W 
160753Z AUTO 12007KT 10SM CLR 21/21 A2996 RMK AO2 SLP126 T02110206
KCNK 
38nm NE 
160655Z AUTO 00000KT 10SM CLR 19/19 A2995 RMK AO2 SLP129 T01940189
KLYO 
43nm S 
160735Z AUTO 13006KT 10SM CLR 21/19 A2997 RMK AO2 T02110194
TAF
KSLN 
29nm SE 
160520Z 1606/1706 VRB05KT P6SM SCT250 FM162000 18010KT P6SM SCT060 FM170000 VRB05KT P6SM VCTS BKN060CB
KRSL 
32nm W 
160520Z 1606/1706 VRB05KT P6SM SCT250 FM161400 18010KT P6SM FEW250 FM170000 04008KT P6SM SCT060
NOTAMs
Click for the latest NOTAMs
NOTAMs are issued by the DoD/FAA and will open in a separate window not controlled by AirNav.

 

 
 

FBO, Fuel Providers, and Aircraft Ground Support

  
 Business Name 
 
 Contact 
 
 Services / Description 
 
Fuel Prices
 
Comments
  
Post Rock Aviation 785-524-5240
no information available

If you are affiliated with Post Rock Aviation and would like to show here your services, contact info, web link, logo, and more, click here
100LL Jet A
FS $5.00 $4.00 
 Updated 08-Aug-2018
 
   write
FS=Full service
Update Fuel Prices
 

Would you like to see your business listed on this page?

 If your business provides an interesting product or service to pilots, flight crews, aircraft, or users of the Lincoln Municipal Airport, you should consider listing it here.  To start the listing process, click on the button below
 
Add a business
 

Other Pages about Lincoln Municipal Airport

Update a link
 
Copyright © AirNav, LLC. All rights reserved. Privacy Policy  Contact